sensor_id;sensor_type;location;lat;lon;timestamp;temperature;humidity
71668;DHT22;59504;54.806;9.640;2022-08-14T00:00:14;20.40;59.10
71668;DHT22;59504;54.806;9.640;2022-08-14T00:02:15;20.40;59.20
71668;DHT22;59504;54.806;9.640;2022-08-14T00:04:16;20.40;59.30
71668;DHT22;59504;54.806;9.640;2022-08-14T00:06:17;20.40;59.50
71668;DHT22;59504;54.806;9.640;2022-08-14T00:08:18;20.40;59.60
71668;DHT22;59504;54.806;9.640;2022-08-14T00:10:22;20.40;60.50
71668;DHT22;59504;54.806;9.640;2022-08-14T00:12:24;20.40;60.20
71668;DHT22;59504;54.806;9.640;2022-08-14T00:14:26;20.40;60.20
71668;DHT22;59504;54.806;9.640;2022-08-14T00:16:28;20.40;60.30
71668;DHT22;59504;54.806;9.640;2022-08-14T00:18:28;20.40;60.30
71668;DHT22;59504;54.806;9.640;2022-08-14T00:20:33;20.40;60.40
71668;DHT22;59504;54.806;9.640;2022-08-14T00:22:34;20.40;60.70
71668;DHT22;59504;54.806;9.640;2022-08-14T00:24:35;20.40;61.70
71668;DHT22;59504;54.806;9.640;2022-08-14T00:26:35;20.40;61.20
71668;DHT22;59504;54.806;9.640;2022-08-14T00:28:36;20.40;61.60
71668;DHT22;59504;54.806;9.640;2022-08-14T00:30:37;20.40;62.10
71668;DHT22;59504;54.806;9.640;2022-08-14T00:32:38;20.40;62.50
71668;DHT22;59504;54.806;9.640;2022-08-14T00:34:39;20.40;62.80
71668;DHT22;59504;54.806;9.640;2022-08-14T00:36:39;20.40;63.20
71668;DHT22;59504;54.806;9.640;2022-08-14T00:38:40;20.40;63.50
71668;DHT22;59504;54.806;9.640;2022-08-14T00:40:41;20.40;63.70
71668;DHT22;59504;54.806;9.640;2022-08-14T00:42:42;20.40;63.90
71668;DHT22;59504;54.806;9.640;2022-08-14T00:44:43;20.40;64.00
71668;DHT22;59504;54.806;9.640;2022-08-14T00:46:44;20.40;64.00
71668;DHT22;59504;54.806;9.640;2022-08-14T00:48:45;20.40;64.10
71668;DHT22;59504;54.806;9.640;2022-08-14T00:50:45;20.40;64.20
71668;DHT22;59504;54.806;9.640;2022-08-14T00:52:48;20.40;64.40
71668;DHT22;59504;54.806;9.640;2022-08-14T00:54:51;20.40;64.60
71668;DHT22;59504;54.806;9.640;2022-08-14T00:56:55;20.40;64.60
71668;DHT22;59504;54.806;9.640;2022-08-14T00:58:56;20.40;64.90
71668;DHT22;59504;54.806;9.640;2022-08-14T01:01:05;20.40;65.10
71668;DHT22;59504;54.806;9.640;2022-08-14T01:03:08;20.40;65.30
71668;DHT22;59504;54.806;9.640;2022-08-14T01:05:11;20.40;65.40
71668;DHT22;59504;54.806;9.640;2022-08-14T01:07:24;20.40;65.70
71668;DHT22;59504;54.806;9.640;2022-08-14T01:09:25;20.40;65.80
71668;DHT22;59504;54.806;9.640;2022-08-14T01:11:29;20.40;65.90
71668;DHT22;59504;54.806;9.640;2022-08-14T01:13:37;20.50;66.20
71668;DHT22;59504;54.806;9.640;2022-08-14T01:15:41;20.50;66.50
71668;DHT22;59504;54.806;9.640;2022-08-14T01:17:42;20.40;66.50
71668;DHT22;59504;54.806;9.640;2022-08-14T01:20:02;20.50;66.80
71668;DHT22;59504;54.806;9.640;2022-08-14T01:22:22;20.50;67.70
71668;DHT22;59504;54.806;9.640;2022-08-14T01:24:24;20.50;67.20
71668;DHT22;59504;54.806;9.640;2022-08-14T01:26:26;20.50;67.40
71668;DHT22;59504;54.806;9.640;2022-08-14T01:28:27;20.50;67.60
71668;DHT22;59504;54.806;9.640;2022-08-14T01:30:31;20.50;67.80
71668;DHT22;59504;54.806;9.640;2022-08-14T01:32:37;20.50;67.20
71668;DHT22;59504;54.806;9.640;2022-08-14T01:34:38;20.50;67.80
71668;DHT22;59504;54.806;9.640;2022-08-14T01:36:39;20.50;67.90
71668;DHT22;59504;54.806;9.640;2022-08-14T01:38:43;20.50;68.20
71668;DHT22;59504;54.806;9.640;2022-08-14T01:40:46;20.50;68.60
71668;DHT22;59504;54.806;9.640;2022-08-14T01:42:47;20.50;68.70
71668;DHT22;59504;54.806;9.640;2022-08-14T01:44:48;20.50;69.20
71668;DHT22;59504;54.806;9.640;2022-08-14T01:46:52;20.50;69.20
71668;DHT22;59504;54.806;9.640;2022-08-14T01:48:54;20.50;69.60
71668;DHT22;59504;54.806;9.640;2022-08-14T01:50:56;20.50;70.00
71668;DHT22;59504;54.806;9.640;2022-08-14T01:52:57;20.50;70.20
71668;DHT22;59504;54.806;9.640;2022-08-14T01:54:57;20.50;70.40
71668;DHT22;59504;54.806;9.640;2022-08-14T01:56:58;20.50;70.40
71668;DHT22;59504;54.806;9.640;2022-08-14T01:58:59;20.50;70.60
71668;DHT22;59504;54.806;9.640;2022-08-14T02:01:00;20.50;70.80
71668;DHT22;59504;54.806;9.640;2022-08-14T02:03:05;20.60;70.90
71668;DHT22;59504;54.806;9.640;2022-08-14T02:05:10;20.60;71.00
71668;DHT22;59504;54.806;9.640;2022-08-14T02:07:10;20.60;71.00
71668;DHT22;59504;54.806;9.640;2022-08-14T02:09:11;20.60;70.90
71668;DHT22;59504;54.806;9.640;2022-08-14T02:11:12;20.60;71.10
71668;DHT22;59504;54.806;9.640;2022-08-14T02:13:16;20.60;71.30
71668;DHT22;59504;54.806;9.640;2022-08-14T02:15:18;20.60;71.60
71668;DHT22;59504;54.806;9.640;2022-08-14T02:17:21;20.60;71.90
71668;DHT22;59504;54.806;9.640;2022-08-14T02:19:27;20.60;72.00
71668;DHT22;59504;54.806;9.640;2022-08-14T02:21:29;20.60;72.30
71668;DHT22;59504;54.806;9.640;2022-08-14T02:23:32;20.50;72.70
71668;DHT22;59504;54.806;9.640;2022-08-14T02:25:33;20.50;73.10
71668;DHT22;59504;54.806;9.640;2022-08-14T02:27:33;20.50;72.80
71668;DHT22;59504;54.806;9.640;2022-08-14T02:29:37;20.50;73.30
71668;DHT22;59504;54.806;9.640;2022-08-14T02:31:46;20.50;73.30
71668;DHT22;59504;54.806;9.640;2022-08-14T02:33:48;20.50;73.70
71668;DHT22;59504;54.806;9.640;2022-08-14T02:35:49;20.50;73.70
71668;DHT22;59504;54.806;9.640;2022-08-14T02:37:52;20.50;73.60
71668;DHT22;59504;54.806;9.640;2022-08-14T02:39:52;20.50;74.10
71668;DHT22;59504;54.806;9.640;2022-08-14T02:41:53;20.50;74.20
71668;DHT22;59504;54.806;9.640;2022-08-14T02:43:54;20.50;73.90
71668;DHT22;59504;54.806;9.640;2022-08-14T02:45:55;20.50;74.30
71668;DHT22;59504;54.806;9.640;2022-08-14T02:47:56;20.50;74.30
71668;DHT22;59504;54.806;9.640;2022-08-14T02:49:57;20.50;74.10
71668;DHT22;59504;54.806;9.640;2022-08-14T02:51:58;20.40;73.80
71668;DHT22;59504;54.806;9.640;2022-08-14T02:53:59;20.40;73.70
71668;DHT22;59504;54.806;9.640;2022-08-14T02:56:01;20.40;74.30
71668;DHT22;59504;54.806;9.640;2022-08-14T02:58:02;20.40;73.70
71668;DHT22;59504;54.806;9.640;2022-08-14T03:00:05;20.40;74.50
71668;DHT22;59504;54.806;9.640;2022-08-14T03:02:06;20.40;73.80
71668;DHT22;59504;54.806;9.640;2022-08-14T03:04:08;20.40;73.70
71668;DHT22;59504;54.806;9.640;2022-08-14T03:06:11;20.40;74.20
71668;DHT22;59504;54.806;9.640;2022-08-14T03:08:13;20.40;74.40
71668;DHT22;59504;54.806;9.640;2022-08-14T03:10:14;20.40;74.10
71668;DHT22;59504;54.806;9.640;2022-08-14T03:12:14;20.40;74.20
71668;DHT22;59504;54.806;9.640;2022-08-14T03:14:15;20.30;74.10
71668;DHT22;59504;54.806;9.640;2022-08-14T03:16:23;20.30;74.30
71668;DHT22;59504;54.806;9.640;2022-08-14T03:18:26;20.30;74.40
71668;DHT22;59504;54.806;9.640;2022-08-14T03:20:28;20.30;74.30
71668;DHT22;59504;54.806;9.640;2022-08-14T03:22:29;20.30;74.40
71668;DHT22;59504;54.806;9.640;2022-08-14T03:24:33;20.30;74.30
71668;DHT22;59504;54.806;9.640;2022-08-14T03:26:45;20.20;74.70
71668;DHT22;59504;54.806;9.640;2022-08-14T03:28:49;20.20;75.30
71668;DHT22;59504;54.806;9.640;2022-08-14T03:30:50;20.20;75.70
71668;DHT22;59504;54.806;9.640;2022-08-14T03:32:51;20.20;75.60
71668;DHT22;59504;54.806;9.640;2022-08-14T03:34:52;20.20;76.20
71668;DHT22;59504;54.806;9.640;2022-08-14T03:36:53;20.10;76.40
71668;DHT22;59504;54.806;9.640;2022-08-14T03:38:54;20.10;76.50
71668;DHT22;59504;54.806;9.640;2022-08-14T03:40:57;20.10;76.20
71668;DHT22;59504;54.806;9.640;2022-08-14T03:42:58;20.10;76.40
71668;DHT22;59504;54.806;9.640;2022-08-14T03:44:58;20.10;76.10
71668;DHT22;59504;54.806;9.640;2022-08-14T03:47:00;20.10;76.10
71668;DHT22;59504;54.806;9.640;2022-08-14T03:49:01;20.10;76.40
71668;DHT22;59504;54.806;9.640;2022-08-14T03:51:05;20.10;76.60
71668;DHT22;59504;54.806;9.640;2022-08-14T03:53:07;20.10;76.50
71668;DHT22;59504;54.806;9.640;2022-08-14T03:55:10;20.10;77.80
71668;DHT22;59504;54.806;9.640;2022-08-14T03:57:11;20.10;76.10
71668;DHT22;59504;54.806;9.640;2022-08-14T03:59:12;20.10;76.10
71668;DHT22;59504;54.806;9.640;2022-08-14T04:01:14;20.00;76.00
71668;DHT22;59504;54.806;9.640;2022-08-14T04:03:15;20.00;76.30
71668;DHT22;59504;54.806;9.640;2022-08-14T04:05:16;20.00;76.30
71668;DHT22;59504;54.806;9.640;2022-08-14T04:07:17;19.90;77.10
71668;DHT22;59504;54.806;9.640;2022-08-14T04:09:17;19.90;76.20
71668;DHT22;59504;54.806;9.640;2022-08-14T04:11:19;19.90;76.40
71668;DHT22;59504;54.806;9.640;2022-08-14T04:13:41;19.90;76.20
71668;DHT22;59504;54.806;9.640;2022-08-14T04:16:04;19.90;76.10
71668;DHT22;59504;54.806;9.640;2022-08-14T04:18:25;19.90;76.00
71668;DHT22;59504;54.806;9.640;2022-08-14T04:20:26;19.90;75.80
71668;DHT22;59504;54.806;9.640;2022-08-14T04:22:27;19.90;75.70
71668;DHT22;59504;54.806;9.640;2022-08-14T04:24:29;19.90;75.80
71668;DHT22;59504;54.806;9.640;2022-08-14T04:26:30;19.90;75.80
71668;DHT22;59504;54.806;9.640;2022-08-14T04:28:31;19.90;76.20
71668;DHT22;59504;54.806;9.640;2022-08-14T04:30:33;19.90;76.00
71668;DHT22;59504;54.806;9.640;2022-08-14T04:32:38;19.90;76.10
71668;DHT22;59504;54.806;9.640;2022-08-14T04:34:38;19.90;76.30
71668;DHT22;59504;54.806;9.640;2022-08-14T04:36:41;19.90;76.20
71668;DHT22;59504;54.806;9.640;2022-08-14T04:39:00;19.80;76.50
71668;DHT22;59504;54.806;9.640;2022-08-14T04:41:20;19.90;76.40
71668;DHT22;59504;54.806;9.640;2022-08-14T04:43:39;19.90;76.60
71668;DHT22;59504;54.806;9.640;2022-08-14T04:45:40;19.90;76.60
71668;DHT22;59504;54.806;9.640;2022-08-14T04:47:43;19.90;76.20
71668;DHT22;59504;54.806;9.640;2022-08-14T04:50:03;19.90;75.90
71668;DHT22;59504;54.806;9.640;2022-08-14T04:52:04;19.90;75.90
71668;DHT22;59504;54.806;9.640;2022-08-14T04:54:05;19.90;75.70
71668;DHT22;59504;54.806;9.640;2022-08-14T04:56:06;19.90;75.80
71668;DHT22;59504;54.806;9.640;2022-08-14T04:58:07;19.90;75.80
71668;DHT22;59504;54.806;9.640;2022-08-14T05:00:09;19.90;75.90
71668;DHT22;59504;54.806;9.640;2022-08-14T05:02:10;19.90;76.20
71668;DHT22;59504;54.806;9.640;2022-08-14T05:04:13;19.90;76.60
71668;DHT22;59504;54.806;9.640;2022-08-14T05:06:13;20.00;76.70
71668;DHT22;59504;54.806;9.640;2022-08-14T05:08:15;20.00;76.70
71668;DHT22;59504;54.806;9.640;2022-08-14T05:10:16;20.00;76.70
71668;DHT22;59504;54.806;9.640;2022-08-14T05:12:21;20.00;77.20
71668;DHT22;59504;54.806;9.640;2022-08-14T05:14:22;20.00;76.80
71668;DHT22;59504;54.806;9.640;2022-08-14T05:16:23;20.10;76.80
71668;DHT22;59504;54.806;9.640;2022-08-14T05:18:36;20.10;76.50
71668;DHT22;59504;54.806;9.640;2022-08-14T05:20:42;20.10;76.00
71668;DHT22;59504;54.806;9.640;2022-08-14T05:22:46;20.20;75.90
71668;DHT22;59504;54.806;9.640;2022-08-14T05:24:48;20.20;75.60
71668;DHT22;59504;54.806;9.640;2022-08-14T05:26:56;20.30;75.20
71668;DHT22;59504;54.806;9.640;2022-08-14T05:28:57;20.30;74.90
71668;DHT22;59504;54.806;9.640;2022-08-14T05:31:01;20.30;74.60
71668;DHT22;59504;54.806;9.640;2022-08-14T05:33:03;20.40;74.30
71668;DHT22;59504;54.806;9.640;2022-08-14T05:35:04;20.40;74.00
71668;DHT22;59504;54.806;9.640;2022-08-14T05:37:05;20.40;73.80
71668;DHT22;59504;54.806;9.640;2022-08-14T05:39:07;20.50;73.70
71668;DHT22;59504;54.806;9.640;2022-08-14T05:41:16;20.50;73.40
71668;DHT22;59504;54.806;9.640;2022-08-14T05:43:17;20.50;72.80
71668;DHT22;59504;54.806;9.640;2022-08-14T05:45:21;20.60;72.70
71668;DHT22;59504;54.806;9.640;2022-08-14T05:47:27;20.70;72.20
71668;DHT22;59504;54.806;9.640;2022-08-14T05:49:28;20.60;71.70
71668;DHT22;59504;54.806;9.640;2022-08-14T05:51:29;20.70;71.50
71668;DHT22;59504;54.806;9.640;2022-08-14T05:53:30;20.70;71.40
71668;DHT22;59504;54.806;9.640;2022-08-14T05:55:31;20.70;71.20
71668;DHT22;59504;54.806;9.640;2022-08-14T05:57:32;20.70;71.10
71668;DHT22;59504;54.806;9.640;2022-08-14T05:59:33;20.70;71.00
71668;DHT22;59504;54.806;9.640;2022-08-14T06:01:34;20.80;71.10
71668;DHT22;59504;54.806;9.640;2022-08-14T06:03:35;20.70;71.20
71668;DHT22;59504;54.806;9.640;2022-08-14T06:05:36;20.70;71.40
71668;DHT22;59504;54.806;9.640;2022-08-14T06:07:40;20.70;71.30
71668;DHT22;59504;54.806;9.640;2022-08-14T06:09:41;20.70;71.70
71668;DHT22;59504;54.806;9.640;2022-08-14T06:11:42;20.70;71.90
71668;DHT22;59504;54.806;9.640;2022-08-14T06:13:43;20.80;72.20
71668;DHT22;59504;54.806;9.640;2022-08-14T06:15:45;20.80;72.20
71668;DHT22;59504;54.806;9.640;2022-08-14T06:17:56;20.90;72.40
71668;DHT22;59504;54.806;9.640;2022-08-14T06:19:57;20.90;72.30
71668;DHT22;59504;54.806;9.640;2022-08-14T06:22:00;20.90;72.60
71668;DHT22;59504;54.806;9.640;2022-08-14T06:24:30;21.00;72.50
71668;DHT22;59504;54.806;9.640;2022-08-14T06:26:52;21.00;72.50
71668;DHT22;59504;54.806;9.640;2022-08-14T06:28:52;21.10;72.30
71668;DHT22;59504;54.806;9.640;2022-08-14T06:30:56;21.20;72.20
71668;DHT22;59504;54.806;9.640;2022-08-14T06:32:59;21.30;72.10
71668;DHT22;59504;54.806;9.640;2022-08-14T06:35:01;21.40;72.00
71668;DHT22;59504;54.806;9.640;2022-08-14T06:37:05;21.30;71.40
71668;DHT22;59504;54.806;9.640;2022-08-14T06:39:09;21.50;70.80
71668;DHT22;59504;54.806;9.640;2022-08-14T06:41:16;21.60;70.80
71668;DHT22;59504;54.806;9.640;2022-08-14T06:43:17;21.60;70.40
71668;DHT22;59504;54.806;9.640;2022-08-14T06:45:22;21.70;70.10
71668;DHT22;59504;54.806;9.640;2022-08-14T06:47:23;21.70;70.10
71668;DHT22;59504;54.806;9.640;2022-08-14T06:49:27;21.80;70.10
71668;DHT22;59504;54.806;9.640;2022-08-14T06:51:28;21.80;69.60
71668;DHT22;59504;54.806;9.640;2022-08-14T06:53:35;21.90;69.50
71668;DHT22;59504;54.806;9.640;2022-08-14T06:55:40;21.90;69.20
71668;DHT22;59504;54.806;9.640;2022-08-14T06:57:48;21.90;69.20
71668;DHT22;59504;54.806;9.640;2022-08-14T06:59:49;21.90;68.70
71668;DHT22;59504;54.806;9.640;2022-08-14T07:01:50;22.00;68.90
71668;DHT22;59504;54.806;9.640;2022-08-14T07:04:10;22.00;68.50
71668;DHT22;59504;54.806;9.640;2022-08-14T07:06:29;22.10;67.90
71668;DHT22;59504;54.806;9.640;2022-08-14T07:08:30;22.10;66.70
71668;DHT22;59504;54.806;9.640;2022-08-14T07:10:35;22.10;66.00
71668;DHT22;59504;54.806;9.640;2022-08-14T07:12:43;22.10;65.30
71668;DHT22;59504;54.806;9.640;2022-08-14T07:14:49;22.20;65.40
71668;DHT22;59504;54.806;9.640;2022-08-14T07:16:51;22.20;65.70
71668;DHT22;59504;54.806;9.640;2022-08-14T07:18:52;22.20;65.40
71668;DHT22;59504;54.806;9.640;2022-08-14T07:20:58;22.30;65.40
71668;DHT22;59504;54.806;9.640;2022-08-14T07:23:07;22.30;65.30
71668;DHT22;59504;54.806;9.640;2022-08-14T07:25:17;22.30;65.10
71668;DHT22;59504;54.806;9.640;2022-08-14T07:27:40;22.30;65.30
71668;DHT22;59504;54.806;9.640;2022-08-14T07:30:16;22.40;65.40
71668;DHT22;59504;54.806;9.640;2022-08-14T07:32:37;22.30;65.40
71668;DHT22;59504;54.806;9.640;2022-08-14T07:35:05;22.40;65.30
71668;DHT22;59504;54.806;9.640;2022-08-14T07:37:26;22.50;65.30
71668;DHT22;59504;54.806;9.640;2022-08-14T07:39:50;22.50;65.50
71668;DHT22;59504;54.806;9.640;2022-08-14T07:42:16;22.60;65.80
71668;DHT22;59504;54.806;9.640;2022-08-14T07:44:40;22.70;65.00
71668;DHT22;59504;54.806;9.640;2022-08-14T07:46:47;22.70;64.80
71668;DHT22;59504;54.806;9.640;2022-08-14T07:48:48;22.70;64.60
71668;DHT22;59504;54.806;9.640;2022-08-14T07:50:52;22.80;64.30
71668;DHT22;59504;54.806;9.640;2022-08-14T07:52:56;22.80;64.00
71668;DHT22;59504;54.806;9.640;2022-08-14T07:54:56;22.80;63.90
71668;DHT22;59504;54.806;9.640;2022-08-14T07:56:58;22.90;64.00
71668;DHT22;59504;54.806;9.640;2022-08-14T07:58:58;22.90;64.10
71668;DHT22;59504;54.806;9.640;2022-08-14T08:01:00;22.90;64.20
71668;DHT22;59504;54.806;9.640;2022-08-14T08:03:01;22.90;63.80
71668;DHT22;59504;54.806;9.640;2022-08-14T08:05:04;22.90;63.40
71668;DHT22;59504;54.806;9.640;2022-08-14T08:07:08;23.00;63.40
71668;DHT22;59504;54.806;9.640;2022-08-14T08:09:14;23.00;63.80
71668;DHT22;59504;54.806;9.640;2022-08-14T08:11:20;23.10;64.00
71668;DHT22;59504;54.806;9.640;2022-08-14T08:13:22;23.10;63.40
71668;DHT22;59504;54.806;9.640;2022-08-14T08:15:39;23.20;63.20
71668;DHT22;59504;54.806;9.640;2022-08-14T08:17:45;23.20;62.70
71668;DHT22;59504;54.806;9.640;2022-08-14T08:19:49;23.20;62.40
71668;DHT22;59504;54.806;9.640;2022-08-14T08:21:59;23.20;62.40
71668;DHT22;59504;54.806;9.640;2022-08-14T08:24:06;23.20;62.10
71668;DHT22;59504;54.806;9.640;2022-08-14T08:26:10;23.30;62.60
71668;DHT22;59504;54.806;9.640;2022-08-14T08:28:22;23.30;62.70
71668;DHT22;59504;54.806;9.640;2022-08-14T08:30:30;23.30;62.50
71668;DHT22;59504;54.806;9.640;2022-08-14T08:32:42;23.40;63.10
71668;DHT22;59504;54.806;9.640;2022-08-14T08:34:57;23.40;62.70
71668;DHT22;59504;54.806;9.640;2022-08-14T08:37:04;23.50;62.20
71668;DHT22;59504;54.806;9.640;2022-08-14T08:39:19;23.50;60.90
71668;DHT22;59504;54.806;9.640;2022-08-14T08:41:23;23.50;60.00
71668;DHT22;59504;54.806;9.640;2022-08-14T08:43:30;23.60;59.90
71668;DHT22;59504;54.806;9.640;2022-08-14T08:45:38;23.50;59.70
71668;DHT22;59504;54.806;9.640;2022-08-14T08:47:42;23.60;59.70
71668;DHT22;59504;54.806;9.640;2022-08-14T08:49:46;23.70;59.50
71668;DHT22;59504;54.806;9.640;2022-08-14T08:51:47;23.80;60.10
71668;DHT22;59504;54.806;9.640;2022-08-14T08:54:03;23.80;59.50
71668;DHT22;59504;54.806;9.640;2022-08-14T08:56:13;23.90;59.60
71668;DHT22;59504;54.806;9.640;2022-08-14T08:58:17;23.90;59.50
71668;DHT22;59504;54.806;9.640;2022-08-14T09:00:21;24.10;59.10
71668;DHT22;59504;54.806;9.640;2022-08-14T09:02:29;24.10;58.60
71668;DHT22;59504;54.806;9.640;2022-08-14T09:04:39;24.10;58.90
71668;DHT22;59504;54.806;9.640;2022-08-14T09:06:48;24.20;58.50
71668;DHT22;59504;54.806;9.640;2022-08-14T09:08:53;24.20;58.90
71668;DHT22;59504;54.806;9.640;2022-08-14T09:10:54;24.30;58.60
71668;DHT22;59504;54.806;9.640;2022-08-14T09:12:56;24.30;58.80
71668;DHT22;59504;54.806;9.640;2022-08-14T09:15:04;24.40;58.60
71668;DHT22;59504;54.806;9.640;2022-08-14T09:17:09;24.40;58.20
71668;DHT22;59504;54.806;9.640;2022-08-14T09:19:11;24.40;57.90
71668;DHT22;59504;54.806;9.640;2022-08-14T09:21:21;24.50;57.80
71668;DHT22;59504;54.806;9.640;2022-08-14T09:23:22;24.60;57.80
71668;DHT22;59504;54.806;9.640;2022-08-14T09:25:26;24.50;57.30
71668;DHT22;59504;54.806;9.640;2022-08-14T09:27:30;24.50;57.70
71668;DHT22;59504;54.806;9.640;2022-08-14T09:29:34;24.50;57.90
71668;DHT22;59504;54.806;9.640;2022-08-14T09:31:37;24.50;58.00
71668;DHT22;59504;54.806;9.640;2022-08-14T09:45:46;24.70;56.10
71668;DHT22;59504;54.806;9.640;2022-08-14T09:47:54;24.60;55.20
71668;DHT22;59504;54.806;9.640;2022-08-14T09:50:59;24.60;55.40
71668;DHT22;59504;54.806;9.640;2022-08-14T09:52:53;24.60;55.60
71668;DHT22;59504;54.806;9.640;2022-08-14T09:54:57;24.60;55.90
71668;DHT22;59504;54.806;9.640;2022-08-14T09:56:58;24.70;55.90
71668;DHT22;59504;54.806;9.640;2022-08-14T09:59:11;24.80;56.30
71668;DHT22;59504;54.806;9.640;2022-08-14T10:01:17;24.80;56.40
71668;DHT22;59504;54.806;9.640;2022-08-14T10:03:35;24.80;56.00
71668;DHT22;59504;54.806;9.640;2022-08-14T10:05:37;24.90;55.70
71668;DHT22;59504;54.806;9.640;2022-08-14T10:07:49;25.00;55.70
71668;DHT22;59504;54.806;9.640;2022-08-14T10:09:57;25.00;55.10
71668;DHT22;59504;54.806;9.640;2022-08-14T10:12:00;25.00;54.60
71668;DHT22;59504;54.806;9.640;2022-08-14T10:14:17;25.00;54.80
71668;DHT22;59504;54.806;9.640;2022-08-14T10:16:23;25.10;55.10
71668;DHT22;59504;54.806;9.640;2022-08-14T10:18:26;25.10;55.00
71668;DHT22;59504;54.806;9.640;2022-08-14T10:20:39;25.10;54.80
71668;DHT22;59504;54.806;9.640;2022-08-14T10:22:42;25.10;54.80
71668;DHT22;59504;54.806;9.640;2022-08-14T10:24:43;25.20;54.80
71668;DHT22;59504;54.806;9.640;2022-08-14T10:26:57;25.20;54.90
71668;DHT22;59504;54.806;9.640;2022-08-14T10:29:05;25.20;54.30
71668;DHT22;59504;54.806;9.640;2022-08-14T10:31:23;25.10;54.50
71668;DHT22;59504;54.806;9.640;2022-08-14T10:33:33;25.20;54.80
71668;DHT22;59504;54.806;9.640;2022-08-14T10:35:41;25.20;55.00
71668;DHT22;59504;54.806;9.640;2022-08-14T10:37:47;25.20;54.90
71668;DHT22;59504;54.806;9.640;2022-08-14T10:40:08;25.30;54.80
71668;DHT22;59504;54.806;9.640;2022-08-14T10:42:13;25.30;54.80
71668;DHT22;59504;54.806;9.640;2022-08-14T10:44:21;25.30;54.80
71668;DHT22;59504;54.806;9.640;2022-08-14T10:46:38;25.30;55.20
71668;DHT22;59504;54.806;9.640;2022-08-14T10:49:16;25.20;55.00
71668;DHT22;59504;54.806;9.640;2022-08-14T10:51:28;25.30;54.90
71668;DHT22;59504;54.806;9.640;2022-08-14T10:53:35;25.30;55.00
71668;DHT22;59504;54.806;9.640;2022-08-14T10:55:39;25.30;54.90
71668;DHT22;59504;54.806;9.640;2022-08-14T10:57:48;25.30;55.30
71668;DHT22;59504;54.806;9.640;2022-08-14T11:01:54;25.30;54.90
71668;DHT22;59504;54.806;9.640;2022-08-14T11:03:59;25.40;54.70
71668;DHT22;59504;54.806;9.640;2022-08-14T11:06:11;25.40;54.90
71668;DHT22;59504;54.806;9.640;2022-08-14T11:08:29;25.40;54.00
71668;DHT22;59504;54.806;9.640;2022-08-14T11:10:52;25.40;54.40
71668;DHT22;59504;54.806;9.640;2022-08-14T11:12:55;25.50;54.20
71668;DHT22;59504;54.806;9.640;2022-08-14T11:14:57;25.50;53.90
71668;DHT22;59504;54.806;9.640;2022-08-14T11:17:01;25.50;54.00
71668;DHT22;59504;54.806;9.640;2022-08-14T11:19:02;25.50;53.40
71668;DHT22;59504;54.806;9.640;2022-08-14T11:21:04;25.60;53.30
71668;DHT22;59504;54.806;9.640;2022-08-14T11:23:08;25.70;53.10
71668;DHT22;59504;54.806;9.640;2022-08-14T11:25:13;25.70;51.70
71668;DHT22;59504;54.806;9.640;2022-08-14T11:27:15;25.70;51.60
71668;DHT22;59504;54.806;9.640;2022-08-14T11:29:19;25.70;51.20
71668;DHT22;59504;54.806;9.640;2022-08-14T11:31:21;25.70;50.90
71668;DHT22;59504;54.806;9.640;2022-08-14T11:33:27;25.70;51.20
71668;DHT22;59504;54.806;9.640;2022-08-14T11:35:36;25.70;51.40
71668;DHT22;59504;54.806;9.640;2022-08-14T11:37:50;25.70;51.60
71668;DHT22;59504;54.806;9.640;2022-08-14T11:39:51;25.70;51.90
71668;DHT22;59504;54.806;9.640;2022-08-14T11:41:52;25.80;51.90
71668;DHT22;59504;54.806;9.640;2022-08-14T11:43:57;25.60;52.00
71668;DHT22;59504;54.806;9.640;2022-08-14T11:45:59;25.70;51.20
71668;DHT22;59504;54.806;9.640;2022-08-14T11:48:24;25.70;51.00
71668;DHT22;59504;54.806;9.640;2022-08-14T11:50:31;25.80;50.80
71668;DHT22;59504;54.806;9.640;2022-08-14T11:52:33;25.80;50.70
71668;DHT22;59504;54.806;9.640;2022-08-14T11:54:34;25.80;50.80
71668;DHT22;59504;54.806;9.640;2022-08-14T11:56:39;25.80;50.70
71668;DHT22;59504;54.806;9.640;2022-08-14T11:58:57;25.70;50.70
71668;DHT22;59504;54.806;9.640;2022-08-14T12:01:00;25.80;51.20
71668;DHT22;59504;54.806;9.640;2022-08-14T12:03:07;25.80;51.30
71668;DHT22;59504;54.806;9.640;2022-08-14T12:05:10;25.70;51.20
71668;DHT22;59504;54.806;9.640;2022-08-14T12:07:19;25.70;51.40
71668;DHT22;59504;54.806;9.640;2022-08-14T12:09:31;25.70;51.40
71668;DHT22;59504;54.806;9.640;2022-08-14T12:11:40;25.70;51.10
71668;DHT22;59504;54.806;9.640;2022-08-14T12:13:46;25.80;51.20
71668;DHT22;59504;54.806;9.640;2022-08-14T12:15:57;25.70;51.00
71668;DHT22;59504;54.806;9.640;2022-08-14T12:17:59;25.70;49.20
71668;DHT22;59504;54.806;9.640;2022-08-14T12:20:04;25.70;49.40
71668;DHT22;59504;54.806;9.640;2022-08-14T12:22:08;25.70;49.20
71668;DHT22;59504;54.806;9.640;2022-08-14T12:24:09;25.80;49.30
71668;DHT22;59504;54.806;9.640;2022-08-14T12:26:20;25.80;49.40
71668;DHT22;59504;54.806;9.640;2022-08-14T12:28:21;25.90;48.20
71668;DHT22;59504;54.806;9.640;2022-08-14T12:30:35;25.90;48.50
71668;DHT22;59504;54.806;9.640;2022-08-14T12:32:44;26.00;47.50
71668;DHT22;59504;54.806;9.640;2022-08-14T12:34:52;26.10;47.40
71668;DHT22;59504;54.806;9.640;2022-08-14T12:37:04;26.10;47.00
71668;DHT22;59504;54.806;9.640;2022-08-14T12:39:25;26.20;47.20
71668;DHT22;59504;54.806;9.640;2022-08-14T12:41:28;26.30;47.10
71668;DHT22;59504;54.806;9.640;2022-08-14T12:43:50;26.30;46.40
71668;DHT22;59504;54.806;9.640;2022-08-14T12:45:53;26.30;46.00
71668;DHT22;59504;54.806;9.640;2022-08-14T12:47:59;26.30;46.20
71668;DHT22;59504;54.806;9.640;2022-08-14T12:50:03;26.30;45.70
71668;DHT22;59504;54.806;9.640;2022-08-14T12:52:12;26.40;45.80
71668;DHT22;59504;54.806;9.640;2022-08-14T12:54:24;26.40;44.30
71668;DHT22;59504;54.806;9.640;2022-08-14T12:56:27;26.50;45.20
71668;DHT22;59504;54.806;9.640;2022-08-14T12:58:40;26.50;44.70
71668;DHT22;59504;54.806;9.640;2022-08-14T13:00:50;26.60;44.90
71668;DHT22;59504;54.806;9.640;2022-08-14T13:02:55;26.60;44.60
71668;DHT22;59504;54.806;9.640;2022-08-14T13:05:03;26.70;44.40
71668;DHT22;59504;54.806;9.640;2022-08-14T13:07:07;26.70;43.60
71668;DHT22;59504;54.806;9.640;2022-08-14T13:09:28;26.70;44.20
71668;DHT22;59504;54.806;9.640;2022-08-14T13:11:42;26.80;44.50
71668;DHT22;59504;54.806;9.640;2022-08-14T13:13:48;26.80;45.10
71668;DHT22;59504;54.806;9.640;2022-08-14T13:15:50;26.80;45.30
71668;DHT22;59504;54.806;9.640;2022-08-14T13:17:56;26.90;45.20
71668;DHT22;59504;54.806;9.640;2022-08-14T13:20:03;26.90;44.90
71668;DHT22;59504;54.806;9.640;2022-08-14T13:22:06;27.00;44.60
71668;DHT22;59504;54.806;9.640;2022-08-14T13:24:08;27.00;44.10
71668;DHT22;59504;54.806;9.640;2022-08-14T13:26:12;26.90;43.70